sensor_id;sensor_type;location;lat;lon;timestamp;P1;durP1;ratioP1;P2;durP2;ratioP2
12177;SDS011;6152;48.728;9.256;2023-05-10T00:01:27;0.52;;;0.52;;
12177;SDS011;6152;48.728;9.256;2023-05-10T00:03:53;0.50;;;0.43;;
12177;SDS011;6152;48.728;9.256;2023-05-10T00:06:19;0.73;;;0.57;;
12177;SDS011;6152;48.728;9.256;2023-05-10T00:08:45;1.17;;;0.50;;
12177;SDS011;6152;48.728;9.256;2023-05-10T00:11:11;0.55;;;0.50;;
12177;SDS011;6152;48.728;9.256;2023-05-10T00:13:37;0.45;;;0.40;;
12177;SDS011;6152;48.728;9.256;2023-05-10T00:16:04;0.45;;;0.45;;
12177;SDS011;6152;48.728;9.256;2023-05-10T00:18:30;0.95;;;0.45;;
12177;SDS011;6152;48.728;9.256;2023-05-10T00:20:56;0.43;;;0.30;;
12177;SDS011;6152;48.728;9.256;2023-05-10T00:23:22;0.90;;;0.38;;
12177;SDS011;6152;48.728;9.256;2023-05-10T00:25:48;0.50;;;0.30;;
12177;SDS011;6152;48.728;9.256;2023-05-10T00:28:14;0.85;;;0.32;;
12177;SDS011;6152;48.728;9.256;2023-05-10T00:30:40;0.28;;;0.28;;
12177;SDS011;6152;48.728;9.256;2023-05-10T00:33:07;0.55;;;0.40;;
12177;SDS011;6152;48.728;9.256;2023-05-10T00:35:33;0.43;;;0.43;;
12177;SDS011;6152;48.728;9.256;2023-05-10T00:37:59;0.20;;;0.20;;
12177;SDS011;6152;48.728;9.256;2023-05-10T00:40:25;0.28;;;0.20;;
12177;SDS011;6152;48.728;9.256;2023-05-10T00:42:51;0.35;;;0.35;;
12177;SDS011;6152;48.728;9.256;2023-05-10T00:45:17;0.22;;;0.20;;
12177;SDS011;6152;48.728;9.256;2023-05-10T00:47:44;0.30;;;0.25;;
12177;SDS011;6152;48.728;9.256;2023-05-10T00:50:10;0.55;;;0.20;;
12177;SDS011;6152;48.728;9.256;2023-05-10T00:52:36;0.20;;;0.10;;
12177;SDS011;6152;48.728;9.256;2023-05-10T00:55:02;0.10;;;0.10;;
12177;SDS011;6152;48.728;9.256;2023-05-10T00:57:29;0.85;;;0.20;;
12177;SDS011;6152;48.728;9.256;2023-05-10T00:59:56;0.30;;;0.10;;
12177;SDS011;6152;48.728;9.256;2023-05-10T01:02:22;0.10;;;0.10;;
12177;SDS011;6152;48.728;9.256;2023-05-10T01:04:49;0.17;;;0.17;;
12177;SDS011;6152;48.728;9.256;2023-05-10T01:07:16;0.20;;;0.10;;
12177;SDS011;6152;48.728;9.256;2023-05-10T01:09:43;0.10;;;0.10;;
12177;SDS011;6152;48.728;9.256;2023-05-10T01:12:09;0.10;;;0.10;;
12177;SDS011;6152;48.728;9.256;2023-05-10T01:14:35;0.40;;;0.10;;
12177;SDS011;6152;48.728;9.256;2023-05-10T01:17:02;0.20;;;0.10;;
12177;SDS011;6152;48.728;9.256;2023-05-10T01:19:30;0.10;;;0.10;;
12177;SDS011;6152;48.728;9.256;2023-05-10T01:22:02;0.40;;;0.10;;
12177;SDS011;6152;48.728;9.256;2023-05-10T01:30:28;0.10;;;0.10;;
12177;SDS011;6152;48.728;9.256;2023-05-10T01:33:10;0.10;;;0.10;;
12177;SDS011;6152;48.728;9.256;2023-05-10T01:38:49;0.10;;;0.10;;
12177;SDS011;6152;48.728;9.256;2023-05-10T01:41:38;0.30;;;0.10;;
12177;SDS011;6152;48.728;9.256;2023-05-10T01:46:45;1.00;;;0.10;;
12177;SDS011;6152;48.728;9.256;2023-05-10T01:49:23;0.10;;;0.10;;
12177;SDS011;6152;48.728;9.256;2023-05-10T01:51:57;0.30;;;0.10;;
12177;SDS011;6152;48.728;9.256;2023-05-10T01:54:29;0.60;;;0.10;;
12177;SDS011;6152;48.728;9.256;2023-05-10T01:57:05;0.45;;;0.10;;
12177;SDS011;6152;48.728;9.256;2023-05-10T01:59:34;0.25;;;0.10;;
12177;SDS011;6152;48.728;9.256;2023-05-10T02:02:05;0.52;;;0.10;;
12177;SDS011;6152;48.728;9.256;2023-05-10T02:04:36;0.20;;;0.20;;
12177;SDS011;6152;48.728;9.256;2023-05-10T02:07:04;0.10;;;0.10;;
12177;SDS011;6152;48.728;9.256;2023-05-10T02:09:32;0.25;;;0.10;;
12177;SDS011;6152;48.728;9.256;2023-05-10T02:12:00;0.10;;;0.10;;
12177;SDS011;6152;48.728;9.256;2023-05-10T02:14:30;0.45;;;0.10;;
12177;SDS011;6152;48.728;9.256;2023-05-10T02:17:00;0.10;;;0.10;;
12177;SDS011;6152;48.728;9.256;2023-05-10T02:19:27;0.10;;;0.10;;
12177;SDS011;6152;48.728;9.256;2023-05-10T02:21:55;0.28;;;0.10;;
12177;SDS011;6152;48.728;9.256;2023-05-10T02:24:22;0.38;;;0.10;;
12177;SDS011;6152;48.728;9.256;2023-05-10T02:26:50;0.20;;;0.10;;
12177;SDS011;6152;48.728;9.256;2023-05-10T02:29:19;0.28;;;0.10;;
12177;SDS011;6152;48.728;9.256;2023-05-10T02:31:48;0.10;;;0.10;;
12177;SDS011;6152;48.728;9.256;2023-05-10T02:34:19;0.20;;;0.20;;
12177;SDS011;6152;48.728;9.256;2023-05-10T02:36:50;0.10;;;0.10;;
12177;SDS011;6152;48.728;9.256;2023-05-10T02:39:18;0.10;;;0.10;;
12177;SDS011;6152;48.728;9.256;2023-05-10T02:41:46;0.20;;;0.20;;
12177;SDS011;6152;48.728;9.256;2023-05-10T02:44:17;0.10;;;0.10;;
12177;SDS011;6152;48.728;9.256;2023-05-10T02:46:45;0.10;;;0.10;;
12177;SDS011;6152;48.728;9.256;2023-05-10T02:49:11;0.10;;;0.10;;
12177;SDS011;6152;48.728;9.256;2023-05-10T02:51:40;0.15;;;0.10;;
12177;SDS011;6152;48.728;9.256;2023-05-10T02:54:13;0.10;;;0.10;;
12177;SDS011;6152;48.728;9.256;2023-05-10T02:56:50;0.40;;;0.13;;
12177;SDS011;6152;48.728;9.256;2023-05-10T02:59:21;1.38;;;0.15;;
12177;SDS011;6152;48.728;9.256;2023-05-10T03:01:47;0.40;;;0.20;;
12177;SDS011;6152;48.728;9.256;2023-05-10T03:04:13;0.10;;;0.10;;
12177;SDS011;6152;48.728;9.256;2023-05-10T03:06:40;1.55;;;0.20;;
12177;SDS011;6152;48.728;9.256;2023-05-10T03:09:06;0.10;;;0.10;;
12177;SDS011;6152;48.728;9.256;2023-05-10T03:17:06;0.20;;;0.20;;
12177;SDS011;6152;48.728;9.256;2023-05-10T03:19:55;0.20;;;0.20;;
12177;SDS011;6152;48.728;9.256;2023-05-10T03:22:29;0.20;;;0.20;;
12177;SDS011;6152;48.728;9.256;2023-05-10T03:24:59;0.20;;;0.20;;
12177;SDS011;6152;48.728;9.256;2023-05-10T03:27:31;0.20;;;0.20;;
12177;SDS011;6152;48.728;9.256;2023-05-10T03:29:58;1.13;;;0.40;;
12177;SDS011;6152;48.728;9.256;2023-05-10T03:32:26;0.30;;;0.30;;
12177;SDS011;6152;48.728;9.256;2023-05-10T03:34:56;0.70;;;0.35;;
12177;SDS011;6152;48.728;9.256;2023-05-10T03:37:22;1.83;;;0.40;;
12177;SDS011;6152;48.728;9.256;2023-05-10T03:39:49;0.43;;;0.43;;
12177;SDS011;6152;48.728;9.256;2023-05-10T03:42:15;1.63;;;0.60;;
12177;SDS011;6152;48.728;9.256;2023-05-10T03:44:42;0.95;;;0.82;;
12177;SDS011;6152;48.728;9.256;2023-05-10T03:47:08;0.63;;;0.63;;
12177;SDS011;6152;48.728;9.256;2023-05-10T03:49:34;1.40;;;0.75;;
12177;SDS011;6152;48.728;9.256;2023-05-10T03:52:00;1.92;;;0.73;;
12177;SDS011;6152;48.728;9.256;2023-05-10T03:54:27;1.15;;;0.88;;
12177;SDS011;6152;48.728;9.256;2023-05-10T03:56:53;0.50;;;0.50;;
12177;SDS011;6152;48.728;9.256;2023-05-10T03:59:19;1.17;;;0.50;;
12177;SDS011;6152;48.728;9.256;2023-05-10T04:01:45;2.65;;;0.60;;
12177;SDS011;6152;48.728;9.256;2023-05-10T04:04:11;2.05;;;0.70;;
12177;SDS011;6152;48.728;9.256;2023-05-10T04:06:37;0.50;;;0.50;;
12177;SDS011;6152;48.728;9.256;2023-05-10T04:09:03;0.77;;;0.60;;
12177;SDS011;6152;48.728;9.256;2023-05-10T04:11:30;0.73;;;0.68;;
12177;SDS011;6152;48.728;9.256;2023-05-10T04:13:56;2.65;;;0.60;;
12177;SDS011;6152;48.728;9.256;2023-05-10T04:16:22;0.57;;;0.40;;
12177;SDS011;6152;48.728;9.256;2023-05-10T04:18:48;0.60;;;0.60;;
12177;SDS011;6152;48.728;9.256;2023-05-10T04:21:14;1.15;;;1.00;;
12177;SDS011;6152;48.728;9.256;2023-05-10T04:23:40;0.93;;;0.50;;
12177;SDS011;6152;48.728;9.256;2023-05-10T04:26:07;2.85;;;0.60;;
12177;SDS011;6152;48.728;9.256;2023-05-10T04:28:33;1.33;;;0.50;;
12177;SDS011;6152;48.728;9.256;2023-05-10T04:31:02;1.08;;;0.65;;
12177;SDS011;6152;48.728;9.256;2023-05-10T04:33:29;1.02;;;0.57;;
12177;SDS011;6152;48.728;9.256;2023-05-10T04:35:56;1.75;;;0.75;;
12177;SDS011;6152;48.728;9.256;2023-05-10T04:38:22;0.50;;;0.50;;
12177;SDS011;6152;48.728;9.256;2023-05-10T04:40:49;0.50;;;0.50;;
12177;SDS011;6152;48.728;9.256;2023-05-10T04:43:15;0.60;;;0.60;;
12177;SDS011;6152;48.728;9.256;2023-05-10T04:45:41;0.73;;;0.70;;
12177;SDS011;6152;48.728;9.256;2023-05-10T04:48:07;0.40;;;0.40;;
12177;SDS011;6152;48.728;9.256;2023-05-10T04:50:34;1.23;;;0.60;;
12177;SDS011;6152;48.728;9.256;2023-05-10T04:53:00;0.60;;;0.60;;
12177;SDS011;6152;48.728;9.256;2023-05-10T04:55:26;0.80;;;0.50;;
12177;SDS011;6152;48.728;9.256;2023-05-10T04:57:52;0.75;;;0.60;;
12177;SDS011;6152;48.728;9.256;2023-05-10T05:00:21;0.68;;;0.65;;
12177;SDS011;6152;48.728;9.256;2023-05-10T05:02:48;0.60;;;0.60;;
12177;SDS011;6152;48.728;9.256;2023-05-10T05:05:14;0.80;;;0.80;;
12177;SDS011;6152;48.728;9.256;2023-05-10T05:07:40;0.80;;;0.80;;
12177;SDS011;6152;48.728;9.256;2023-05-10T05:10:07;1.35;;;0.70;;
12177;SDS011;6152;48.728;9.256;2023-05-10T05:12:33;1.95;;;0.80;;
12177;SDS011;6152;48.728;9.256;2023-05-10T05:15:00;1.25;;;0.70;;
12177;SDS011;6152;48.728;9.256;2023-05-10T05:17:26;2.25;;;0.70;;
12177;SDS011;6152;48.728;9.256;2023-05-10T05:19:54;0.85;;;0.85;;
12177;SDS011;6152;48.728;9.256;2023-05-10T05:22:20;0.90;;;0.90;;
12177;SDS011;6152;48.728;9.256;2023-05-10T05:24:56;1.02;;;0.73;;
12177;SDS011;6152;48.728;9.256;2023-05-10T05:27:27;0.57;;;0.57;;
12177;SDS011;6152;48.728;9.256;2023-05-10T05:29:53;0.60;;;0.60;;
12177;SDS011;6152;48.728;9.256;2023-05-10T05:32:20;0.65;;;0.65;;
12177;SDS011;6152;48.728;9.256;2023-05-10T05:34:47;0.88;;;0.60;;
12177;SDS011;6152;48.728;9.256;2023-05-10T05:37:17;0.88;;;0.68;;
12177;SDS011;6152;48.728;9.256;2023-05-10T05:39:44;2.03;;;0.70;;
12177;SDS011;6152;48.728;9.256;2023-05-10T05:42:11;0.65;;;0.65;;
12177;SDS011;6152;48.728;9.256;2023-05-10T05:44:38;0.65;;;0.65;;
12177;SDS011;6152;48.728;9.256;2023-05-10T05:47:04;1.20;;;0.65;;
12177;SDS011;6152;48.728;9.256;2023-05-10T05:49:31;2.05;;;0.70;;
12177;SDS011;6152;48.728;9.256;2023-05-10T05:52:01;1.58;;;0.50;;
12177;SDS011;6152;48.728;9.256;2023-05-10T05:54:28;2.42;;;0.50;;
12177;SDS011;6152;48.728;9.256;2023-05-10T05:56:55;0.40;;;0.40;;
12177;SDS011;6152;48.728;9.256;2023-05-10T05:59:22;0.68;;;0.47;;
12177;SDS011;6152;48.728;9.256;2023-05-10T06:01:48;0.82;;;0.50;;
12177;SDS011;6152;48.728;9.256;2023-05-10T06:04:15;0.60;;;0.60;;
12177;SDS011;6152;48.728;9.256;2023-05-10T06:06:41;0.50;;;0.50;;
12177;SDS011;6152;48.728;9.256;2023-05-10T06:09:07;0.90;;;0.75;;
12177;SDS011;6152;48.728;9.256;2023-05-10T06:11:34;0.90;;;0.50;;
12177;SDS011;6152;48.728;9.256;2023-05-10T06:14:01;0.68;;;0.60;;
12177;SDS011;6152;48.728;9.256;2023-05-10T06:16:29;0.63;;;0.50;;
12177;SDS011;6152;48.728;9.256;2023-05-10T06:18:55;2.35;;;0.75;;
12177;SDS011;6152;48.728;9.256;2023-05-10T06:21:21;0.68;;;0.68;;
12177;SDS011;6152;48.728;9.256;2023-05-10T06:23:48;0.80;;;0.80;;
12177;SDS011;6152;48.728;9.256;2023-05-10T06:26:14;1.27;;;0.60;;
12177;SDS011;6152;48.728;9.256;2023-05-10T06:28:40;1.30;;;0.82;;
12177;SDS011;6152;48.728;9.256;2023-05-10T06:31:06;0.60;;;0.60;;
12177;SDS011;6152;48.728;9.256;2023-05-10T06:33:33;0.73;;;0.50;;
12177;SDS011;6152;48.728;9.256;2023-05-10T06:35:59;0.55;;;0.55;;
12177;SDS011;6152;48.728;9.256;2023-05-10T06:38:25;0.40;;;0.40;;
12177;SDS011;6152;48.728;9.256;2023-05-10T06:40:51;0.60;;;0.60;;
12177;SDS011;6152;48.728;9.256;2023-05-10T06:43:17;0.47;;;0.47;;
12177;SDS011;6152;48.728;9.256;2023-05-10T06:45:43;1.45;;;0.80;;
12177;SDS011;6152;48.728;9.256;2023-05-10T06:48:10;1.45;;;0.60;;
12177;SDS011;6152;48.728;9.256;2023-05-10T06:50:36;0.50;;;0.50;;
12177;SDS011;6152;48.728;9.256;2023-05-10T06:53:02;1.20;;;0.70;;
12177;SDS011;6152;48.728;9.256;2023-05-10T06:55:28;1.27;;;0.50;;
12177;SDS011;6152;48.728;9.256;2023-05-10T06:57:54;0.75;;;0.60;;
12177;SDS011;6152;48.728;9.256;2023-05-10T07:00:21;0.70;;;0.70;;
12177;SDS011;6152;48.728;9.256;2023-05-10T07:02:47;0.98;;;0.90;;
12177;SDS011;6152;48.728;9.256;2023-05-10T07:05:13;2.53;;;0.80;;
12177;SDS011;6152;48.728;9.256;2023-05-10T07:07:40;2.03;;;0.82;;
12177;SDS011;6152;48.728;9.256;2023-05-10T07:10:06;0.80;;;0.80;;
12177;SDS011;6152;48.728;9.256;2023-05-10T07:12:33;1.05;;;0.95;;
12177;SDS011;6152;48.728;9.256;2023-05-10T07:14:59;1.55;;;0.63;;
12177;SDS011;6152;48.728;9.256;2023-05-10T07:17:25;2.92;;;1.08;;
12177;SDS011;6152;48.728;9.256;2023-05-10T07:19:51;0.60;;;0.60;;
12177;SDS011;6152;48.728;9.256;2023-05-10T07:22:17;0.70;;;0.70;;
12177;SDS011;6152;48.728;9.256;2023-05-10T07:24:43;3.90;;;0.80;;
12177;SDS011;6152;48.728;9.256;2023-05-10T07:27:10;2.47;;;1.10;;
12177;SDS011;6152;48.728;9.256;2023-05-10T07:29:36;0.80;;;0.80;;
12177;SDS011;6152;48.728;9.256;2023-05-10T07:32:02;2.35;;;0.70;;
12177;SDS011;6152;48.728;9.256;2023-05-10T07:34:28;2.17;;;0.80;;
12177;SDS011;6152;48.728;9.256;2023-05-10T07:36:56;1.25;;;0.50;;
12177;SDS011;6152;48.728;9.256;2023-05-10T07:39:26;0.50;;;0.50;;
12177;SDS011;6152;48.728;9.256;2023-05-10T07:41:52;0.95;;;0.55;;
12177;SDS011;6152;48.728;9.256;2023-05-10T07:44:22;0.90;;;0.60;;
12177;SDS011;6152;48.728;9.256;2023-05-10T07:46:48;0.75;;;0.75;;
12177;SDS011;6152;48.728;9.256;2023-05-10T07:49:14;0.70;;;0.50;;
12177;SDS011;6152;48.728;9.256;2023-05-10T07:51:41;1.40;;;0.55;;
12177;SDS011;6152;48.728;9.256;2023-05-10T07:54:07;1.80;;;0.63;;
12177;SDS011;6152;48.728;9.256;2023-05-10T07:56:33;2.75;;;0.47;;
12177;SDS011;6152;48.728;9.256;2023-05-10T07:59:00;0.68;;;0.40;;
12177;SDS011;6152;48.728;9.256;2023-05-10T08:01:30;1.13;;;0.50;;
12177;SDS011;6152;48.728;9.256;2023-05-10T08:03:58;0.93;;;0.52;;
12177;SDS011;6152;48.728;9.256;2023-05-10T08:06:25;0.68;;;0.50;;
12177;SDS011;6152;48.728;9.256;2023-05-10T08:08:53;4.88;;;0.60;;
12177;SDS011;6152;48.728;9.256;2023-05-10T08:11:20;0.50;;;0.50;;
12177;SDS011;6152;48.728;9.256;2023-05-10T08:13:47;0.40;;;0.40;;
12177;SDS011;6152;48.728;9.256;2023-05-10T08:16:14;0.30;;;0.30;;
12177;SDS011;6152;48.728;9.256;2023-05-10T08:18:41;0.80;;;0.40;;
12177;SDS011;6152;48.728;9.256;2023-05-10T08:21:08;1.38;;;0.40;;
12177;SDS011;6152;48.728;9.256;2023-05-10T08:23:36;1.65;;;0.43;;
12177;SDS011;6152;48.728;9.256;2023-05-10T08:26:02;1.98;;;0.70;;
12177;SDS011;6152;48.728;9.256;2023-05-10T08:28:28;0.50;;;0.50;;
12177;SDS011;6152;48.728;9.256;2023-05-10T08:30:55;0.88;;;0.30;;
12177;SDS011;6152;48.728;9.256;2023-05-10T08:33:21;1.77;;;0.32;;
12177;SDS011;6152;48.728;9.256;2023-05-10T08:35:47;0.32;;;0.30;;
12177;SDS011;6152;48.728;9.256;2023-05-10T08:38:14;1.00;;;0.30;;
12177;SDS011;6152;48.728;9.256;2023-05-10T08:40:43;1.85;;;0.30;;
12177;SDS011;6152;48.728;9.256;2023-05-10T08:43:11;0.95;;;0.45;;
12177;SDS011;6152;48.728;9.256;2023-05-10T08:45:41;2.38;;;0.50;;
12177;SDS011;6152;48.728;9.256;2023-05-10T08:48:09;1.38;;;0.20;;
12177;SDS011;6152;48.728;9.256;2023-05-10T08:50:36;0.22;;;0.20;;
12177;SDS011;6152;48.728;9.256;2023-05-10T08:53:04;0.85;;;0.20;;
12177;SDS011;6152;48.728;9.256;2023-05-10T08:55:34;0.65;;;0.30;;
12177;SDS011;6152;48.728;9.256;2023-05-10T08:58:02;3.10;;;0.38;;
12177;SDS011;6152;48.728;9.256;2023-05-10T09:00:29;1.35;;;0.40;;
12177;SDS011;6152;48.728;9.256;2023-05-10T09:02:59;0.22;;;0.22;;
12177;SDS011;6152;48.728;9.256;2023-05-10T09:05:28;0.85;;;0.30;;
12177;SDS011;6152;48.728;9.256;2023-05-10T09:07:55;0.70;;;0.30;;
12177;SDS011;6152;48.728;9.256;2023-05-10T09:10:21;0.73;;;0.40;;
12177;SDS011;6152;48.728;9.256;2023-05-10T09:12:51;0.38;;;0.20;;
12177;SDS011;6152;48.728;9.256;2023-05-10T09:15:18;0.85;;;0.25;;
12177;SDS011;6152;48.728;9.256;2023-05-10T09:17:45;0.13;;;0.13;;
12177;SDS011;6152;48.728;9.256;2023-05-10T09:20:12;1.65;;;0.20;;
12177;SDS011;6152;48.728;9.256;2023-05-10T09:22:38;0.50;;;0.30;;
12177;SDS011;6152;48.728;9.256;2023-05-10T09:25:08;1.30;;;0.32;;
12177;SDS011;6152;48.728;9.256;2023-05-10T09:27:37;2.30;;;0.30;;
12177;SDS011;6152;48.728;9.256;2023-05-10T09:30:04;0.75;;;0.20;;
12177;SDS011;6152;48.728;9.256;2023-05-10T09:32:38;3.60;;;0.50;;
12177;SDS011;6152;48.728;9.256;2023-05-10T09:35:15;0.35;;;0.20;;
12177;SDS011;6152;48.728;9.256;2023-05-10T09:37:44;1.85;;;0.40;;
12177;SDS011;6152;48.728;9.256;2023-05-10T09:40:30;0.73;;;0.30;;
12177;SDS011;6152;48.728;9.256;2023-05-10T09:42:58;1.17;;;0.30;;
12177;SDS011;6152;48.728;9.256;2023-05-10T09:45:35;0.30;;;0.20;;
12177;SDS011;6152;48.728;9.256;2023-05-10T09:48:02;0.32;;;0.20;;
12177;SDS011;6152;48.728;9.256;2023-05-10T09:50:29;1.80;;;0.20;;
12177;SDS011;6152;48.728;9.256;2023-05-10T09:52:59;0.25;;;0.25;;
12177;SDS011;6152;48.728;9.256;2023-05-10T09:55:38;0.32;;;0.20;;
12177;SDS011;6152;48.728;9.256;2023-05-10T09:58:11;0.40;;;0.25;;
12177;SDS011;6152;48.728;9.256;2023-05-10T10:00:39;0.32;;;0.20;;
12177;SDS011;6152;48.728;9.256;2023-05-10T10:03:13;0.80;;;0.30;;
12177;SDS011;6152;48.728;9.256;2023-05-10T10:05:41;0.10;;;0.10;;
12177;SDS011;6152;48.728;9.256;2023-05-10T10:08:09;0.20;;;0.20;;
12177;SDS011;6152;48.728;9.256;2023-05-10T10:10:36;2.83;;;0.40;;
12177;SDS011;6152;48.728;9.256;2023-05-10T10:13:03;1.48;;;0.30;;
12177;SDS011;6152;48.728;9.256;2023-05-10T10:15:30;2.20;;;0.30;;
12177;SDS011;6152;48.728;9.256;2023-05-10T10:17:57;1.45;;;0.25;;
12177;SDS011;6152;48.728;9.256;2023-05-10T10:20:23;2.00;;;0.30;;
12177;SDS011;6152;48.728;9.256;2023-05-10T10:22:51;1.95;;;0.10;;
12177;SDS011;6152;48.728;9.256;2023-05-10T10:25:18;1.15;;;0.20;;
12177;SDS011;6152;48.728;9.256;2023-05-10T10:30:25;0.30;;;0.20;;
12177;SDS011;6152;48.728;9.256;2023-05-10T10:35:52;1.85;;;0.20;;
12177;SDS011;6152;48.728;9.256;2023-05-10T10:38:19;0.43;;;0.10;;
12177;SDS011;6152;48.728;9.256;2023-05-10T10:40:47;0.10;;;0.10;;
12177;SDS011;6152;48.728;9.256;2023-05-10T10:43:23;1.02;;;0.10;;
12177;SDS011;6152;48.728;9.256;2023-05-10T10:46:09;3.03;;;0.20;;
12177;SDS011;6152;48.728;9.256;2023-05-10T10:48:40;0.20;;;0.10;;
12177;SDS011;6152;48.728;9.256;2023-05-10T10:51:13;0.98;;;0.20;;
12177;SDS011;6152;48.728;9.256;2023-05-10T10:53:39;3.35;;;0.20;;
12177;SDS011;6152;48.728;9.256;2023-05-10T10:56:08;0.17;;;0.17;;
12177;SDS011;6152;48.728;9.256;2023-05-10T10:58:37;0.20;;;0.20;;
12177;SDS011;6152;48.728;9.256;2023-05-10T11:01:14;0.40;;;0.20;;
12177;SDS011;6152;48.728;9.256;2023-05-10T11:04:04;0.60;;;0.20;;
12177;SDS011;6152;48.728;9.256;2023-05-10T11:06:36;0.28;;;0.20;;
12177;SDS011;6152;48.728;9.256;2023-05-10T11:09:09;0.20;;;0.20;;
12177;SDS011;6152;48.728;9.256;2023-05-10T11:11:48;0.75;;;0.20;;
12177;SDS011;6152;48.728;9.256;2023-05-10T11:14:23;0.28;;;0.20;;
12177;SDS011;6152;48.728;9.256;2023-05-10T11:16:49;1.83;;;0.40;;
12177;SDS011;6152;48.728;9.256;2023-05-10T11:19:16;2.78;;;0.40;;
12177;SDS011;6152;48.728;9.256;2023-05-10T11:21:50;8.70;;;0.80;;
12177;SDS011;6152;48.728;9.256;2023-05-10T11:24:36;7.65;;;1.25;;
12177;SDS011;6152;48.728;9.256;2023-05-10T11:27:02;3.25;;;0.20;;
12177;SDS011;6152;48.728;9.256;2023-05-10T11:29:29;3.55;;;0.55;;
12177;SDS011;6152;48.728;9.256;2023-05-10T11:31:58;1.73;;;0.30;;
12177;SDS011;6152;48.728;9.256;2023-05-10T11:36:55;1.27;;;0.20;;
12177;SDS011;6152;48.728;9.256;2023-05-10T11:39:25;3.28;;;0.20;;
12177;SDS011;6152;48.728;9.256;2023-05-10T11:41:53;2.75;;;0.10;;
12177;SDS011;6152;48.728;9.256;2023-05-10T11:44:19;1.13;;;0.30;;
12177;SDS011;6152;48.728;9.256;2023-05-10T11:46:45;0.93;;;0.20;;
12177;SDS011;6152;48.728;9.256;2023-05-10T11:49:11;1.65;;;0.20;;
12177;SDS011;6152;48.728;9.256;2023-05-10T11:51:38;0.35;;;0.20;;
12177;SDS011;6152;48.728;9.256;2023-05-10T11:54:08;0.40;;;0.20;;
12177;SDS011;6152;48.728;9.256;2023-05-10T11:56:39;0.55;;;0.20;;
12177;SDS011;6152;48.728;9.256;2023-05-10T11:59:06;0.35;;;0.30;;
12177;SDS011;6152;48.728;9.256;2023-05-10T12:01:33;0.60;;;0.20;;
12177;SDS011;6152;48.728;9.256;2023-05-10T12:04:00;0.60;;;0.35;;
12177;SDS011;6152;48.728;9.256;2023-05-10T12:06:27;0.22;;;0.22;;
12177;SDS011;6152;48.728;9.256;2023-05-10T12:08:56;0.52;;;0.30;;
12177;SDS011;6152;48.728;9.256;2023-05-10T12:11:27;0.80;;;0.30;;
12177;SDS011;6152;48.728;9.256;2023-05-10T12:13:53;0.30;;;0.30;;
12177;SDS011;6152;48.728;9.256;2023-05-10T12:16:24;0.80;;;0.30;;
12177;SDS011;6152;48.728;9.256;2023-05-10T12:18:55;0.82;;;0.30;;
12177;SDS011;6152;48.728;9.256;2023-05-10T12:21:22;0.85;;;0.30;;
12177;SDS011;6152;48.728;9.256;2023-05-10T12:23:52;0.75;;;0.40;;
12177;SDS011;6152;48.728;9.256;2023-05-10T12:26:23;2.05;;;0.30;;
12177;SDS011;6152;48.728;9.256;2023-05-10T12:28:52;0.30;;;0.30;;
12177;SDS011;6152;48.728;9.256;2023-05-10T12:31:18;0.90;;;0.45;;
12177;SDS011;6152;48.728;9.256;2023-05-10T12:33:45;1.00;;;0.32;;
12177;SDS011;6152;48.728;9.256;2023-05-10T12:36:13;1.77;;;0.30;;
12177;SDS011;6152;48.728;9.256;2023-05-10T12:38:40;0.40;;;0.40;;
12177;SDS011;6152;48.728;9.256;2023-05-10T12:41:11;2.30;;;0.40;;
12177;SDS011;6152;48.728;9.256;2023-05-10T12:43:39;0.50;;;0.20;;
12177;SDS011;6152;48.728;9.256;2023-05-10T12:46:06;0.68;;;0.32;;
12177;SDS011;6152;48.728;9.256;2023-05-10T12:48:37;0.75;;;0.30;;
12177;SDS011;6152;48.728;9.256;2023-05-10T12:51:04;0.38;;;0.30;;
12177;SDS011;6152;48.728;9.256;2023-05-10T12:53:34;1.58;;;0.40;;
12177;SDS011;6152;48.728;9.256;2023-05-10T12:56:00;1.08;;;0.20;;
12177;SDS011;6152;48.728;9.256;2023-05-10T12:58:27;5.85;;;0.50;;
12177;SDS011;6152;48.728;9.256;2023-05-10T13:00:53;0.75;;;0.40;;
12177;SDS011;6152;48.728;9.256;2023-05-10T13:03:21;1.30;;;0.47;;
12177;SDS011;6152;48.728;9.256;2023-05-10T13:05:47;1.88;;;0.50;;
12177;SDS011;6152;48.728;9.256;2023-05-10T13:08:13;0.40;;;0.38;;
12177;SDS011;6152;48.728;9.256;2023-05-10T13:10:40;0.70;;;0.40;;
12177;SDS011;6152;48.728;9.256;2023-05-10T13:13:06;1.83;;;0.43;;
12177;SDS011;6152;48.728;9.256;2023-05-10T13:15:33;0.20;;;0.20;;
12177;SDS011;6152;48.728;9.256;2023-05-10T13:17:59;0.60;;;0.50;;
12177;SDS011;6152;48.728;9.256;2023-05-10T13:20:25;3.80;;;0.40;;
12177;SDS011;6152;48.728;9.256;2023-05-10T13:22:52;2.50;;;0.50;;
12177;SDS011;6152;48.728;9.256;2023-05-10T13:25:18;2.30;;;0.40;;
12177;SDS011;6152;48.728;9.256;2023-05-10T13:27:44;1.25;;;0.40;;
12177;SDS011;6152;48.728;9.256;2023-05-10T13:30:10;3.40;;;0.65;;
12177;SDS011;6152;48.728;9.256;2023-05-10T13:32:37;2.05;;;0.50;;
12177;SDS011;6152;48.728;9.256;2023-05-10T13:35:03;0.82;;;0.40;;
12177;SDS011;6152;48.728;9.256;2023-05-10T13:37:30;0.65;;;0.28;;
12177;SDS011;6152;48.728;9.256;2023-05-10T13:40:00;1.42;;;0.50;;
12177;SDS011;6152;48.728;9.256;2023-05-10T13:42:26;1.27;;;0.30;;
12177;SDS011;6152;48.728;9.256;2023-05-10T13:44:53;1.77;;;0.40;;
12177;SDS011;6152;48.728;9.256;2023-05-10T13:47:19;2.55;;;0.40;;
12177;SDS011;6152;48.728;9.256;2023-05-10T13:49:46;1.35;;;0.40;;
12177;SDS011;6152;48.728;9.256;2023-05-10T13:52:12;0.52;;;0.43;;
12177;SDS011;6152;48.728;9.256;2023-05-10T13:54:38;0.47;;;0.30;;
12177;SDS011;6152;48.728;9.256;2023-05-10T13:57:05;0.63;;;0.30;;
12177;SDS011;6152;48.728;9.256;2023-05-10T13:59:31;1.38;;;0.32;;
12177;SDS011;6152;48.728;9.256;2023-05-10T14:01:58;1.75;;;0.50;;
12177;SDS011;6152;48.728;9.256;2023-05-10T14:04:27;1.27;;;0.30;;
12177;SDS011;6152;48.728;9.256;2023-05-10T14:06:54;1.40;;;0.40;;
12177;SDS011;6152;48.728;9.256;2023-05-10T14:09:20;0.75;;;0.20;;
12177;SDS011;6152;48.728;9.256;2023-05-10T14:11:46;0.98;;;0.35;;
12177;SDS011;6152;48.728;9.256;2023-05-10T14:14:12;0.65;;;0.35;;
12177;SDS011;6152;48.728;9.256;2023-05-10T14:16:42;0.65;;;0.50;;
12177;SDS011;6152;48.728;9.256;2023-05-10T14:19:09;6.00;;;0.82;;
12177;SDS011;6152;48.728;9.256;2023-05-10T14:21:35;2.33;;;0.60;;
12177;SDS011;6152;48.728;9.256;2023-05-10T14:24:02;1.00;;;0.40;;
12177;SDS011;6152;48.728;9.256;2023-05-10T14:26:28;1.05;;;0.50;;
12177;SDS011;6152;48.728;9.256;2023-05-10T14:28:54;3.22;;;0.60;;
12177;SDS011;6152;48.728;9.256;2023-05-10T14:31:21;3.00;;;0.50;;
12177;SDS011;6152;48.728;9.256;2023-05-10T14:33:49;2.25;;;0.30;;
12177;SDS011;6152;48.728;9.256;2023-05-10T14:36:15;1.38;;;0.30;;
12177;SDS011;6152;48.728;9.256;2023-05-10T14:38:42;2.00;;;0.40;;
12177;SDS011;6152;48.728;9.256;2023-05-10T14:41:08;0.98;;;0.30;;
12177;SDS011;6152;48.728;9.256;2023-05-10T14:43:38;1.45;;;0.30;;
12177;SDS011;6152;48.728;9.256;2023-05-10T14:46:05;1.02;;;0.20;;
12177;SDS011;6152;48.728;9.256;2023-05-10T14:48:31;1.17;;;0.30;;
12177;SDS011;6152;48.728;9.256;2023-05-10T14:50:57;0.30;;;0.30;;
12177;SDS011;6152;48.728;9.256;2023-05-10T14:53:23;3.60;;;0.70;;
12177;SDS011;6152;48.728;9.256;2023-05-10T14:55:49;0.65;;;0.30;;
12177;SDS011;6152;48.728;9.256;2023-05-10T14:58:15;1.02;;;0.30;;
12177;SDS011;6152;48.728;9.256;2023-05-10T15:00:42;0.65;;;0.30;;
12177;SDS011;6152;48.728;9.256;2023-05-10T15:03:08;1.98;;;0.30;;
12177;SDS011;6152;48.728;9.256;2023-05-10T15:05:34;1.05;;;0.20;;
12177;SDS011;6152;48.728;9.256;2023-05-10T15:08:02;0.30;;;0.20;;
12177;SDS011;6152;48.728;9.256;2023-05-10T15:10:29;0.57;;;0.30;;
12177;SDS011;6152;48.728;9.256;2023-05-10T15:12:55;1.92;;;0.30;;
12177;SDS011;6152;48.728;9.256;2023-05-10T15:15:21;0.90;;;0.30;;
12177;SDS011;6152;48.728;9.256;2023-05-10T15:17:47;0.30;;;0.30;;
12177;SDS011;6152;48.728;9.256;2023-05-10T15:20:14;0.40;;;0.32;;
12177;SDS011;6152;48.728;9.256;2023-05-10T15:22:40;0.77;;;0.30;;
12177;SDS011;6152;48.728;9.256;2023-05-10T15:25:06;0.63;;;0.60;;
12177;SDS011;6152;48.728;9.256;2023-05-10T15:27:32;0.50;;;0.43;;
12177;SDS011;6152;48.728;9.256;2023-05-10T15:30:00;0.95;;;0.30;;